sensor_id;sensor_type;location;lat;lon;timestamp;temperature;humidity
59007;DHT22;44792;52.760;6.726;2023-06-26T00:01:04;22.50;99.90
59007;DHT22;44792;52.760;6.726;2023-06-26T00:03:30;22.50;99.90
59007;DHT22;44792;52.760;6.726;2023-06-26T00:05:57;22.40;99.90
59007;DHT22;44792;52.760;6.726;2023-06-26T00:08:26;22.40;99.90
59007;DHT22;44792;52.760;6.726;2023-06-26T00:10:52;22.40;99.90
59007;DHT22;44792;52.760;6.726;2023-06-26T00:13:18;22.30;99.90
59007;DHT22;44792;52.760;6.726;2023-06-26T00:15:44;22.30;99.90
59007;DHT22;44792;52.760;6.726;2023-06-26T00:18:11;22.20;99.90
59007;DHT22;44792;52.760;6.726;2023-06-26T00:20:36;22.20;99.90
59007;DHT22;44792;52.760;6.726;2023-06-26T00:23:02;22.20;99.90
59007;DHT22;44792;52.760;6.726;2023-06-26T00:25:33;22.30;99.90
59007;DHT22;44792;52.760;6.726;2023-06-26T00:27:59;22.30;99.90
59007;DHT22;44792;52.760;6.726;2023-06-26T00:30:25;22.20;99.90
59007;DHT22;44792;52.760;6.726;2023-06-26T00:32:50;22.30;99.90
59007;DHT22;44792;52.760;6.726;2023-06-26T00:35:17;22.20;99.90
59007;DHT22;44792;52.760;6.726;2023-06-26T00:37:42;22.20;99.90
59007;DHT22;44792;52.760;6.726;2023-06-26T00:40:09;22.20;99.90
59007;DHT22;44792;52.760;6.726;2023-06-26T00:42:34;22.10;99.90
59007;DHT22;44792;52.760;6.726;2023-06-26T00:45:00;22.10;99.90
59007;DHT22;44792;52.760;6.726;2023-06-26T00:47:27;22.10;99.90
59007;DHT22;44792;52.760;6.726;2023-06-26T00:49:54;22.00;99.90
59007;DHT22;44792;52.760;6.726;2023-06-26T00:52:21;21.90;99.90
59007;DHT22;44792;52.760;6.726;2023-06-26T00:54:47;22.00;99.90
59007;DHT22;44792;52.760;6.726;2023-06-26T00:57:13;21.90;99.90
59007;DHT22;44792;52.760;6.726;2023-06-26T00:59:39;22.00;99.90
59007;DHT22;44792;52.760;6.726;2023-06-26T01:02:05;21.90;99.90
59007;DHT22;44792;52.760;6.726;2023-06-26T01:04:31;22.00;99.90
59007;DHT22;44792;52.760;6.726;2023-06-26T01:06:59;21.80;99.90
59007;DHT22;44792;52.760;6.726;2023-06-26T01:09:25;21.80;99.90
59007;DHT22;44792;52.760;6.726;2023-06-26T01:11:51;21.80;99.90
59007;DHT22;44792;52.760;6.726;2023-06-26T01:14:17;21.90;99.90
59007;DHT22;44792;52.760;6.726;2023-06-26T01:16:43;21.80;99.90
59007;DHT22;44792;52.760;6.726;2023-06-26T01:19:32;21.80;99.90
59007;DHT22;44792;52.760;6.726;2023-06-26T01:24:45;21.70;99.90
59007;DHT22;44792;52.760;6.726;2023-06-26T01:27:14;21.60;99.90
59007;DHT22;44792;52.760;6.726;2023-06-26T01:29:40;21.70;99.90
59007;DHT22;44792;52.760;6.726;2023-06-26T01:32:07;21.70;99.90
59007;DHT22;44792;52.760;6.726;2023-06-26T01:34:33;21.60;99.90
59007;DHT22;44792;52.760;6.726;2023-06-26T01:36:59;21.70;99.90
59007;DHT22;44792;52.760;6.726;2023-06-26T01:39:24;21.70;99.90
59007;DHT22;44792;52.760;6.726;2023-06-26T01:41:50;21.70;99.90
59007;DHT22;44792;52.760;6.726;2023-06-26T01:44:25;21.60;99.90
59007;DHT22;44792;52.760;6.726;2023-06-26T01:46:58;21.50;99.90
59007;DHT22;44792;52.760;6.726;2023-06-26T01:49:43;21.50;99.90
59007;DHT22;44792;52.760;6.726;2023-06-26T01:52:14;21.50;99.90
59007;DHT22;44792;52.760;6.726;2023-06-26T01:57:32;21.50;99.90
59007;DHT22;44792;52.760;6.726;2023-06-26T01:59:59;21.40;99.90
59007;DHT22;44792;52.760;6.726;2023-06-26T02:02:25;21.40;99.90
59007;DHT22;44792;52.760;6.726;2023-06-26T02:04:51;21.40;99.90
59007;DHT22;44792;52.760;6.726;2023-06-26T02:07:17;21.40;99.90
59007;DHT22;44792;52.760;6.726;2023-06-26T02:09:43;21.40;99.90
59007;DHT22;44792;52.760;6.726;2023-06-26T02:12:09;21.30;99.90
59007;DHT22;44792;52.760;6.726;2023-06-26T02:14:35;21.20;99.90
59007;DHT22;44792;52.760;6.726;2023-06-26T02:17:01;21.20;99.90
59007;DHT22;44792;52.760;6.726;2023-06-26T02:19:26;21.20;99.90
59007;DHT22;44792;52.760;6.726;2023-06-26T02:21:53;21.20;99.90
59007;DHT22;44792;52.760;6.726;2023-06-26T02:24:19;21.10;99.90
59007;DHT22;44792;52.760;6.726;2023-06-26T02:26:45;21.10;99.90
59007;DHT22;44792;52.760;6.726;2023-06-26T02:29:11;21.10;99.90
59007;DHT22;44792;52.760;6.726;2023-06-26T02:31:37;21.10;99.90
59007;DHT22;44792;52.760;6.726;2023-06-26T02:34:04;21.10;99.90
59007;DHT22;44792;52.760;6.726;2023-06-26T02:36:29;21.10;99.90
59007;DHT22;44792;52.760;6.726;2023-06-26T02:38:55;21.00;99.90
59007;DHT22;44792;52.760;6.726;2023-06-26T02:41:21;21.00;99.90
59007;DHT22;44792;52.760;6.726;2023-06-26T02:43:47;21.10;99.90
59007;DHT22;44792;52.760;6.726;2023-06-26T02:46:12;21.00;99.90
59007;DHT22;44792;52.760;6.726;2023-06-26T02:48:38;21.10;99.90
59007;DHT22;44792;52.760;6.726;2023-06-26T02:51:04;21.10;99.90
59007;DHT22;44792;52.760;6.726;2023-06-26T02:53:31;21.10;99.90
59007;DHT22;44792;52.760;6.726;2023-06-26T02:55:56;21.00;99.90
59007;DHT22;44792;52.760;6.726;2023-06-26T02:58:22;21.10;99.90
59007;DHT22;44792;52.760;6.726;2023-06-26T03:00:48;21.00;99.90
59007;DHT22;44792;52.760;6.726;2023-06-26T03:03:13;21.10;99.90
59007;DHT22;44792;52.760;6.726;2023-06-26T03:05:39;21.10;99.90
59007;DHT22;44792;52.760;6.726;2023-06-26T03:08:05;21.10;99.90
59007;DHT22;44792;52.760;6.726;2023-06-26T03:10:31;21.00;99.90
59007;DHT22;44792;52.760;6.726;2023-06-26T03:12:57;21.10;99.90
59007;DHT22;44792;52.760;6.726;2023-06-26T03:15:22;21.10;99.90
59007;DHT22;44792;52.760;6.726;2023-06-26T03:17:48;21.10;99.90
59007;DHT22;44792;52.760;6.726;2023-06-26T03:20:14;21.00;99.90
59007;DHT22;44792;52.760;6.726;2023-06-26T03:22:41;21.10;99.90
59007;DHT22;44792;52.760;6.726;2023-06-26T03:25:06;21.10;99.90
59007;DHT22;44792;52.760;6.726;2023-06-26T03:27:33;21.10;99.90
59007;DHT22;44792;52.760;6.726;2023-06-26T03:29:58;21.10;99.90
59007;DHT22;44792;52.760;6.726;2023-06-26T03:32:24;21.00;99.90
59007;DHT22;44792;52.760;6.726;2023-06-26T03:34:50;21.10;99.90
59007;DHT22;44792;52.760;6.726;2023-06-26T03:37:15;21.20;99.90
59007;DHT22;44792;52.760;6.726;2023-06-26T03:39:41;21.30;99.90
59007;DHT22;44792;52.760;6.726;2023-06-26T03:42:07;21.40;99.90
59007;DHT22;44792;52.760;6.726;2023-06-26T03:44:33;21.40;99.90
59007;DHT22;44792;52.760;6.726;2023-06-26T03:46:58;21.40;99.90
59007;DHT22;44792;52.760;6.726;2023-06-26T03:49:24;21.50;99.90
59007;DHT22;44792;52.760;6.726;2023-06-26T03:51:50;21.50;99.90
59007;DHT22;44792;52.760;6.726;2023-06-26T03:54:15;21.50;99.90
59007;DHT22;44792;52.760;6.726;2023-06-26T03:56:41;21.50;99.90
59007;DHT22;44792;52.760;6.726;2023-06-26T03:59:07;21.60;99.90
59007;DHT22;44792;52.760;6.726;2023-06-26T04:01:32;21.60;99.90
59007;DHT22;44792;52.760;6.726;2023-06-26T04:04:00;21.60;99.90
59007;DHT22;44792;52.760;6.726;2023-06-26T04:06:25;21.80;99.90
59007;DHT22;44792;52.760;6.726;2023-06-26T04:08:51;21.80;99.90
59007;DHT22;44792;52.760;6.726;2023-06-26T04:11:17;21.90;99.90
59007;DHT22;44792;52.760;6.726;2023-06-26T04:13:42;21.90;99.90
59007;DHT22;44792;52.760;6.726;2023-06-26T04:16:08;21.90;99.90
59007;DHT22;44792;52.760;6.726;2023-06-26T04:18:36;21.90;99.90
59007;DHT22;44792;52.760;6.726;2023-06-26T04:21:10;22.00;99.90
59007;DHT22;44792;52.760;6.726;2023-06-26T04:23:38;22.00;99.90
59007;DHT22;44792;52.760;6.726;2023-06-26T04:26:05;22.00;99.90
59007;DHT22;44792;52.760;6.726;2023-06-26T04:28:31;22.00;99.90
59007;DHT22;44792;52.760;6.726;2023-06-26T04:30:58;22.00;99.90
59007;DHT22;44792;52.760;6.726;2023-06-26T04:33:24;22.10;99.90
59007;DHT22;44792;52.760;6.726;2023-06-26T04:35:51;22.10;99.90
59007;DHT22;44792;52.760;6.726;2023-06-26T04:38:17;22.20;99.90
59007;DHT22;44792;52.760;6.726;2023-06-26T04:40:43;22.10;99.90
59007;DHT22;44792;52.760;6.726;2023-06-26T04:43:09;22.10;99.90
59007;DHT22;44792;52.760;6.726;2023-06-26T04:45:35;22.10;99.90
59007;DHT22;44792;52.760;6.726;2023-06-26T04:48:01;22.20;99.90
59007;DHT22;44792;52.760;6.726;2023-06-26T04:50:27;22.20;99.90
59007;DHT22;44792;52.760;6.726;2023-06-26T04:52:54;22.10;99.90
59007;DHT22;44792;52.760;6.726;2023-06-26T04:55:20;22.20;99.90
59007;DHT22;44792;52.760;6.726;2023-06-26T04:57:49;22.20;99.90
59007;DHT22;44792;52.760;6.726;2023-06-26T05:00:15;22.30;99.90
59007;DHT22;44792;52.760;6.726;2023-06-26T05:02:41;22.40;99.90
59007;DHT22;44792;52.760;6.726;2023-06-26T05:05:07;22.60;99.90
59007;DHT22;44792;52.760;6.726;2023-06-26T05:07:33;22.80;99.90
59007;DHT22;44792;52.760;6.726;2023-06-26T05:09:59;22.90;99.90
59007;DHT22;44792;52.760;6.726;2023-06-26T05:12:24;22.90;99.90
59007;DHT22;44792;52.760;6.726;2023-06-26T05:14:50;22.90;99.90
59007;DHT22;44792;52.760;6.726;2023-06-26T05:17:16;22.80;99.90
59007;DHT22;44792;52.760;6.726;2023-06-26T05:19:41;22.80;99.90
59007;DHT22;44792;52.760;6.726;2023-06-26T05:22:08;22.70;99.90
59007;DHT22;44792;52.760;6.726;2023-06-26T05:24:38;22.70;99.90
59007;DHT22;44792;52.760;6.726;2023-06-26T05:27:04;22.60;99.90
59007;DHT22;44792;52.760;6.726;2023-06-26T05:29:31;22.60;99.90
59007;DHT22;44792;52.760;6.726;2023-06-26T05:31:57;22.60;99.90
59007;DHT22;44792;52.760;6.726;2023-06-26T05:34:23;22.50;99.90
59007;DHT22;44792;52.760;6.726;2023-06-26T05:36:57;22.50;99.90
59007;DHT22;44792;52.760;6.726;2023-06-26T05:39:23;22.60;99.90
59007;DHT22;44792;52.760;6.726;2023-06-26T05:41:50;22.60;99.90
59007;DHT22;44792;52.760;6.726;2023-06-26T05:44:16;22.60;99.90
59007;DHT22;44792;52.760;6.726;2023-06-26T05:46:42;22.60;99.90
59007;DHT22;44792;52.760;6.726;2023-06-26T05:49:08;22.70;99.90
59007;DHT22;44792;52.760;6.726;2023-06-26T05:51:34;22.70;99.90
59007;DHT22;44792;52.760;6.726;2023-06-26T05:54:00;22.60;99.90
59007;DHT22;44792;52.760;6.726;2023-06-26T05:56:26;22.60;99.90
59007;DHT22;44792;52.760;6.726;2023-06-26T05:58:52;22.40;99.90
59007;DHT22;44792;52.760;6.726;2023-06-26T06:01:18;22.50;99.90
59007;DHT22;44792;52.760;6.726;2023-06-26T06:03:45;22.40;99.90
59007;DHT22;44792;52.760;6.726;2023-06-26T06:06:11;22.50;99.90
59007;DHT22;44792;52.760;6.726;2023-06-26T06:08:37;22.50;99.90
59007;DHT22;44792;52.760;6.726;2023-06-26T06:11:03;22.40;99.90
59007;DHT22;44792;52.760;6.726;2023-06-26T06:13:28;22.60;99.90
59007;DHT22;44792;52.760;6.726;2023-06-26T06:15:54;22.60;99.90
59007;DHT22;44792;52.760;6.726;2023-06-26T06:18:20;22.60;99.90
59007;DHT22;44792;52.760;6.726;2023-06-26T06:20:46;22.60;99.90
59007;DHT22;44792;52.760;6.726;2023-06-26T06:23:12;22.70;99.90
59007;DHT22;44792;52.760;6.726;2023-06-26T06:25:38;22.80;99.90
59007;DHT22;44792;52.760;6.726;2023-06-26T06:28:06;22.80;99.90
59007;DHT22;44792;52.760;6.726;2023-06-26T06:30:32;22.80;99.90
59007;DHT22;44792;52.760;6.726;2023-06-26T06:32:58;22.80;99.90
59007;DHT22;44792;52.760;6.726;2023-06-26T06:35:24;22.80;99.90
59007;DHT22;44792;52.760;6.726;2023-06-26T06:37:49;22.70;99.90
59007;DHT22;44792;52.760;6.726;2023-06-26T06:40:16;22.60;99.90
59007;DHT22;44792;52.760;6.726;2023-06-26T06:42:42;22.60;99.90
59007;DHT22;44792;52.760;6.726;2023-06-26T06:45:09;22.60;99.90
59007;DHT22;44792;52.760;6.726;2023-06-26T06:47:34;22.60;99.90
59007;DHT22;44792;52.760;6.726;2023-06-26T06:50:01;22.70;99.90
59007;DHT22;44792;52.760;6.726;2023-06-26T06:52:37;23.00;99.90
59007;DHT22;44792;52.760;6.726;2023-06-26T06:55:04;22.90;99.90
59007;DHT22;44792;52.760;6.726;2023-06-26T06:57:36;23.00;99.90
59007;DHT22;44792;52.760;6.726;2023-06-26T07:00:04;22.90;99.90
59007;DHT22;44792;52.760;6.726;2023-06-26T07:02:30;22.80;99.90
59007;DHT22;44792;52.760;6.726;2023-06-26T07:04:56;22.90;99.90
59007;DHT22;44792;52.760;6.726;2023-06-26T07:07:22;22.80;99.90
59007;DHT22;44792;52.760;6.726;2023-06-26T07:09:47;22.80;99.90
59007;DHT22;44792;52.760;6.726;2023-06-26T07:12:13;22.90;99.90
59007;DHT22;44792;52.760;6.726;2023-06-26T07:14:39;23.40;99.90
59007;DHT22;44792;52.760;6.726;2023-06-26T07:17:05;23.60;99.90
59007;DHT22;44792;52.760;6.726;2023-06-26T07:19:30;23.80;99.90
59007;DHT22;44792;52.760;6.726;2023-06-26T07:21:56;23.80;99.90
59007;DHT22;44792;52.760;6.726;2023-06-26T07:24:22;24.00;99.90
59007;DHT22;44792;52.760;6.726;2023-06-26T07:26:47;24.20;99.90
59007;DHT22;44792;52.760;6.726;2023-06-26T07:29:13;24.20;99.90
59007;DHT22;44792;52.760;6.726;2023-06-26T07:31:39;24.20;99.90
59007;DHT22;44792;52.760;6.726;2023-06-26T07:34:04;24.30;99.90
59007;DHT22;44792;52.760;6.726;2023-06-26T07:36:30;24.30;99.90
59007;DHT22;44792;52.760;6.726;2023-06-26T07:38:56;24.40;99.90
59007;DHT22;44792;52.760;6.726;2023-06-26T07:41:21;24.40;99.90
59007;DHT22;44792;52.760;6.726;2023-06-26T07:43:47;24.50;99.90
59007;DHT22;44792;52.760;6.726;2023-06-26T07:46:13;24.60;99.90
59007;DHT22;44792;52.760;6.726;2023-06-26T07:48:38;24.60;99.90
59007;DHT22;44792;52.760;6.726;2023-06-26T07:51:04;24.60;99.90
59007;DHT22;44792;52.760;6.726;2023-06-26T07:53:30;24.70;99.90
59007;DHT22;44792;52.760;6.726;2023-06-26T07:55:55;24.80;99.90
59007;DHT22;44792;52.760;6.726;2023-06-26T07:58:21;24.90;99.90
59007;DHT22;44792;52.760;6.726;2023-06-26T08:00:47;24.80;99.90
59007;DHT22;44792;52.760;6.726;2023-06-26T08:03:12;24.80;99.90
59007;DHT22;44792;52.760;6.726;2023-06-26T08:05:38;24.90;99.90
59007;DHT22;44792;52.760;6.726;2023-06-26T08:08:04;24.90;99.90
59007;DHT22;44792;52.760;6.726;2023-06-26T08:10:29;24.90;99.90
59007;DHT22;44792;52.760;6.726;2023-06-26T08:12:56;25.00;99.90
59007;DHT22;44792;52.760;6.726;2023-06-26T08:15:21;25.10;99.90
59007;DHT22;44792;52.760;6.726;2023-06-26T08:17:47;25.10;99.90
59007;DHT22;44792;52.760;6.726;2023-06-26T08:20:13;25.00;99.90
59007;DHT22;44792;52.760;6.726;2023-06-26T08:22:40;25.10;99.90
59007;DHT22;44792;52.760;6.726;2023-06-26T08:25:05;25.10;99.90
59007;DHT22;44792;52.760;6.726;2023-06-26T08:27:32;25.10;99.90
59007;DHT22;44792;52.760;6.726;2023-06-26T08:29:58;25.10;99.90
59007;DHT22;44792;52.760;6.726;2023-06-26T08:32:24;25.00;99.90
59007;DHT22;44792;52.760;6.726;2023-06-26T08:34:50;25.00;99.90
59007;DHT22;44792;52.760;6.726;2023-06-26T08:37:16;25.00;99.90
59007;DHT22;44792;52.760;6.726;2023-06-26T08:39:42;25.00;99.90
59007;DHT22;44792;52.760;6.726;2023-06-26T08:42:11;25.10;99.90
59007;DHT22;44792;52.760;6.726;2023-06-26T08:44:36;25.20;99.90
59007;DHT22;44792;52.760;6.726;2023-06-26T08:47:03;25.20;99.90
59007;DHT22;44792;52.760;6.726;2023-06-26T08:49:43;25.30;99.90
59007;DHT22;44792;52.760;6.726;2023-06-26T08:52:16;25.10;99.90
59007;DHT22;44792;52.760;6.726;2023-06-26T08:54:46;25.10;99.90
59007;DHT22;44792;52.760;6.726;2023-06-26T08:57:15;25.20;99.90
59007;DHT22;44792;52.760;6.726;2023-06-26T08:59:43;25.40;99.90
59007;DHT22;44792;52.760;6.726;2023-06-26T09:02:10;25.40;99.90
59007;DHT22;44792;52.760;6.726;2023-06-26T09:04:36;25.30;99.90
59007;DHT22;44792;52.760;6.726;2023-06-26T09:07:02;25.20;99.90
59007;DHT22;44792;52.760;6.726;2023-06-26T09:09:28;25.30;99.90
59007;DHT22;44792;52.760;6.726;2023-06-26T09:11:54;25.30;99.90
59007;DHT22;44792;52.760;6.726;2023-06-26T09:14:21;25.50;99.90
59007;DHT22;44792;52.760;6.726;2023-06-26T09:16:47;25.40;99.90
59007;DHT22;44792;52.760;6.726;2023-06-26T09:19:13;25.30;99.90
59007;DHT22;44792;52.760;6.726;2023-06-26T09:21:40;25.30;99.90
59007;DHT22;44792;52.760;6.726;2023-06-26T09:24:07;25.20;99.90
59007;DHT22;44792;52.760;6.726;2023-06-26T09:26:35;25.20;99.90
59007;DHT22;44792;52.760;6.726;2023-06-26T09:29:02;25.30;99.90
59007;DHT22;44792;52.760;6.726;2023-06-26T09:31:28;25.30;99.90
59007;DHT22;44792;52.760;6.726;2023-06-26T09:34:00;25.40;99.90
59007;DHT22;44792;52.760;6.726;2023-06-26T09:36:27;25.30;99.90
59007;DHT22;44792;52.760;6.726;2023-06-26T09:38:53;25.10;99.90
59007;DHT22;44792;52.760;6.726;2023-06-26T09:41:19;25.10;99.90
59007;DHT22;44792;52.760;6.726;2023-06-26T09:43:49;25.10;99.90
59007;DHT22;44792;52.760;6.726;2023-06-26T09:46:28;25.10;99.90
59007;DHT22;44792;52.760;6.726;2023-06-26T09:49:23;25.30;99.90
59007;DHT22;44792;52.760;6.726;2023-06-26T09:51:50;25.40;99.90
59007;DHT22;44792;52.760;6.726;2023-06-26T09:54:17;25.20;99.90
59007;DHT22;44792;52.760;6.726;2023-06-26T09:56:43;25.10;99.90
59007;DHT22;44792;52.760;6.726;2023-06-26T09:59:09;25.20;99.90
59007;DHT22;44792;52.760;6.726;2023-06-26T10:01:39;25.20;99.90
59007;DHT22;44792;52.760;6.726;2023-06-26T10:04:05;25.20;99.90
59007;DHT22;44792;52.760;6.726;2023-06-26T10:06:36;25.40;99.90
59007;DHT22;44792;52.760;6.726;2023-06-26T10:09:04;25.60;99.20
59007;DHT22;44792;52.760;6.726;2023-06-26T10:11:56;25.50;99.40
59007;DHT22;44792;52.760;6.726;2023-06-26T10:14:26;25.50;99.00
59007;DHT22;44792;52.760;6.726;2023-06-26T10:16:57;25.50;99.20
59007;DHT22;44792;52.760;6.726;2023-06-26T10:19:24;25.60;99.10
59007;DHT22;44792;52.760;6.726;2023-06-26T10:21:53;25.60;98.90
59007;DHT22;44792;52.760;6.726;2023-06-26T10:24:21;25.50;99.00
59007;DHT22;44792;52.760;6.726;2023-06-26T10:26:50;25.30;99.10
59007;DHT22;44792;52.760;6.726;2023-06-26T10:29:19;25.20;98.80
59007;DHT22;44792;52.760;6.726;2023-06-26T10:31:51;24.30;98.70
59007;DHT22;44792;52.760;6.726;2023-06-26T10:34:17;24.80;99.40
59007;DHT22;44792;52.760;6.726;2023-06-26T10:36:43;25.00;99.50
59007;DHT22;44792;52.760;6.726;2023-06-26T10:39:09;25.20;99.10
59007;DHT22;44792;52.760;6.726;2023-06-26T10:41:39;25.30;98.80
59007;DHT22;44792;52.760;6.726;2023-06-26T10:44:11;25.30;98.40
59007;DHT22;44792;52.760;6.726;2023-06-26T10:46:56;25.30;97.70
59007;DHT22;44792;52.760;6.726;2023-06-26T10:49:30;25.30;97.10
59007;DHT22;44792;52.760;6.726;2023-06-26T10:51:55;25.50;97.90
59007;DHT22;44792;52.760;6.726;2023-06-26T10:54:29;25.60;96.10
59007;DHT22;44792;52.760;6.726;2023-06-26T10:56:56;25.70;97.30
59007;DHT22;44792;52.760;6.726;2023-06-26T10:59:29;25.70;97.40
59007;DHT22;44792;52.760;6.726;2023-06-26T11:02:15;25.60;97.20
59007;DHT22;44792;52.760;6.726;2023-06-26T11:07:25;25.80;97.20
59007;DHT22;44792;52.760;6.726;2023-06-26T11:12:42;25.80;97.70
59007;DHT22;44792;52.760;6.726;2023-06-26T11:17:35;25.70;96.30
59007;DHT22;44792;52.760;6.726;2023-06-26T11:20:04;25.80;95.30
59007;DHT22;44792;52.760;6.726;2023-06-26T11:22:31;25.70;95.80
59007;DHT22;44792;52.760;6.726;2023-06-26T11:24:59;25.80;95.50
59007;DHT22;44792;52.760;6.726;2023-06-26T11:27:39;25.60;95.20
59007;DHT22;44792;52.760;6.726;2023-06-26T11:30:06;25.70;95.70
59007;DHT22;44792;52.760;6.726;2023-06-26T11:32:32;25.80;96.10
59007;DHT22;44792;52.760;6.726;2023-06-26T11:34:59;25.80;96.20
59007;DHT22;44792;52.760;6.726;2023-06-26T11:37:25;25.60;95.60
59007;DHT22;44792;52.760;6.726;2023-06-26T11:39:51;25.70;95.90
59007;DHT22;44792;52.760;6.726;2023-06-26T11:42:20;25.70;94.70
59007;DHT22;44792;52.760;6.726;2023-06-26T11:44:46;25.70;95.10
59007;DHT22;44792;52.760;6.726;2023-06-26T11:47:14;25.70;95.30
59007;DHT22;44792;52.760;6.726;2023-06-26T11:49:42;25.60;95.70
59007;DHT22;44792;52.760;6.726;2023-06-26T11:52:08;25.70;96.00
59007;DHT22;44792;52.760;6.726;2023-06-26T11:54:34;25.50;95.50
59007;DHT22;44792;52.760;6.726;2023-06-26T11:56:59;24.80;94.70
59007;DHT22;44792;52.760;6.726;2023-06-26T11:59:37;24.70;95.40
59007;DHT22;44792;52.760;6.726;2023-06-26T12:02:07;25.00;95.10
59007;DHT22;44792;52.760;6.726;2023-06-26T12:04:36;25.20;95.10
59007;DHT22;44792;52.760;6.726;2023-06-26T12:07:03;25.50;95.50
59007;DHT22;44792;52.760;6.726;2023-06-26T12:09:30;25.50;95.30
59007;DHT22;44792;52.760;6.726;2023-06-26T12:11:58;25.60;95.00
59007;DHT22;44792;52.760;6.726;2023-06-26T12:14:26;25.60;94.80
59007;DHT22;44792;52.760;6.726;2023-06-26T12:16:54;25.50;94.80
59007;DHT22;44792;52.760;6.726;2023-06-26T12:19:25;25.40;94.50
59007;DHT22;44792;52.760;6.726;2023-06-26T12:21:52;25.50;94.80
59007;DHT22;44792;52.760;6.726;2023-06-26T12:24:20;25.80;95.10
59007;DHT22;44792;52.760;6.726;2023-06-26T12:26:53;25.80;95.00
59007;DHT22;44792;52.760;6.726;2023-06-26T12:29:20;26.00;94.30
59007;DHT22;44792;52.760;6.726;2023-06-26T12:31:51;25.90;94.60
59007;DHT22;44792;52.760;6.726;2023-06-26T12:34:37;25.90;94.40
59007;DHT22;44792;52.760;6.726;2023-06-26T12:37:10;25.80;94.40
59007;DHT22;44792;52.760;6.726;2023-06-26T12:39:57;25.90;93.60
59007;DHT22;44792;52.760;6.726;2023-06-26T12:42:27;25.80;94.00
59007;DHT22;44792;52.760;6.726;2023-06-26T12:44:54;25.80;94.80
59007;DHT22;44792;52.760;6.726;2023-06-26T12:47:28;25.80;94.70
59007;DHT22;44792;52.760;6.726;2023-06-26T12:49:56;25.90;94.20
59007;DHT22;44792;52.760;6.726;2023-06-26T12:52:23;25.80;94.10
59007;DHT22;44792;52.760;6.726;2023-06-26T12:54:53;25.80;94.30
59007;DHT22;44792;52.760;6.726;2023-06-26T12:57:20;25.70;93.80
59007;DHT22;44792;52.760;6.726;2023-06-26T12:59:45;25.80;94.40
59007;DHT22;44792;52.760;6.726;2023-06-26T13:02:11;26.00;93.80
59007;DHT22;44792;52.760;6.726;2023-06-26T13:04:37;26.00;93.30
59007;DHT22;44792;52.760;6.726;2023-06-26T13:07:06;25.90;93.00
59007;DHT22;44792;52.760;6.726;2023-06-26T13:09:33;25.70;93.10
59007;DHT22;44792;52.760;6.726;2023-06-26T13:12:00;25.60;93.50
59007;DHT22;44792;52.760;6.726;2023-06-26T13:14:25;25.70;93.90
59007;DHT22;44792;52.760;6.726;2023-06-26T13:16:51;25.70;94.30
59007;DHT22;44792;52.760;6.726;2023-06-26T13:19:17;25.80;94.50
59007;DHT22;44792;52.760;6.726;2023-06-26T13:21:43;25.80;94.30
59007;DHT22;44792;52.760;6.726;2023-06-26T13:24:09;25.90;94.40
59007;DHT22;44792;52.760;6.726;2023-06-26T13:26:34;25.90;93.90
59007;DHT22;44792;52.760;6.726;2023-06-26T13:29:02;25.60;94.10
59007;DHT22;44792;52.760;6.726;2023-06-26T13:31:27;25.60;94.00
59007;DHT22;44792;52.760;6.726;2023-06-26T13:33:53;25.80;94.00
59007;DHT22;44792;52.760;6.726;2023-06-26T13:36:19;25.70;94.30
59007;DHT22;44792;52.760;6.726;2023-06-26T13:38:46;25.50;94.40
59007;DHT22;44792;52.760;6.726;2023-06-26T13:41:13;25.60;94.80
59007;DHT22;44792;52.760;6.726;2023-06-26T13:43:39;25.70;94.70
59007;DHT22;44792;52.760;6.726;2023-06-26T13:46:05;25.70;94.90
59007;DHT22;44792;52.760;6.726;2023-06-26T13:48:31;25.70;95.30
59007;DHT22;44792;52.760;6.726;2023-06-26T13:50:58;25.50;95.50
59007;DHT22;44792;52.760;6.726;2023-06-26T13:53:24;25.50;95.30
59007;DHT22;44792;52.760;6.726;2023-06-26T13:55:49;25.40;95.10
59007;DHT22;44792;52.760;6.726;2023-06-26T13:58:15;25.30;94.80
59007;DHT22;44792;52.760;6.726;2023-06-26T14:00:41;25.50;94.70
59007;DHT22;44792;52.760;6.726;2023-06-26T14:03:10;25.50;94.30
59007;DHT22;44792;52.760;6.726;2023-06-26T14:05:36;25.50;93.90
59007;DHT22;44792;52.760;6.726;2023-06-26T14:08:04;25.50;93.40
59007;DHT22;44792;52.760;6.726;2023-06-26T14:10:30;25.30;93.60
59007;DHT22;44792;52.760;6.726;2023-06-26T14:12:56;25.40;93.80
59007;DHT22;44792;52.760;6.726;2023-06-26T14:15:21;25.20;94.00
59007;DHT22;44792;52.760;6.726;2023-06-26T14:17:47;25.30;94.00
59007;DHT22;44792;52.760;6.726;2023-06-26T14:20:14;25.10;94.40
59007;DHT22;44792;52.760;6.726;2023-06-26T14:22:40;25.30;94.30
59007;DHT22;44792;52.760;6.726;2023-06-26T14:25:07;25.30;94.20
59007;DHT22;44792;52.760;6.726;2023-06-26T14:27:33;25.10;94.10
59007;DHT22;44792;52.760;6.726;2023-06-26T14:29:59;25.10;94.20
59007;DHT22;44792;52.760;6.726;2023-06-26T14:32:24;25.10;94.40
59007;DHT22;44792;52.760;6.726;2023-06-26T14:34:50;25.10;93.90
59007;DHT22;44792;52.760;6.726;2023-06-26T14:37:16;25.30;94.00
59007;DHT22;44792;52.760;6.726;2023-06-26T14:39:44;25.30;94.00
59007;DHT22;44792;52.760;6.726;2023-06-26T14:42:10;25.20;94.10
59007;DHT22;44792;52.760;6.726;2023-06-26T14:44:36;25.30;94.10
59007;DHT22;44792;52.760;6.726;2023-06-26T14:47:02;25.00;94.20
59007;DHT22;44792;52.760;6.726;2023-06-26T14:49:27;24.90;94.60
59007;DHT22;44792;52.760;6.726;2023-06-26T14:51:53;24.90;94.80
59007;DHT22;44792;52.760;6.726;2023-06-26T14:54:19;24.80;94.60
59007;DHT22;44792;52.760;6.726;2023-06-26T14:56:44;25.00;94.20
59007;DHT22;44792;52.760;6.726;2023-06-26T14:59:11;24.90;94.00
59007;DHT22;44792;52.760;6.726;2023-06-26T15:01:38;25.00;93.80
59007;DHT22;44792;52.760;6.726;2023-06-26T15:04:07;25.10;94.00
59007;DHT22;44792;52.760;6.726;2023-06-26T15:06:34;25.00;93.40
59007;DHT22;44792;52.760;6.726;2023-06-26T15:08:59;25.10;93.50
59007;DHT22;44792;52.760;6.726;2023-06-26T15:11:26;25.20;93.00
59007;DHT22;44792;52.760;6.726;2023-06-26T15:13:52;25.10;93.30
59007;DHT22;44792;52.760;6.726;2023-06-26T15:16:18;25.10;93.40
59007;DHT22;44792;52.760;6.726;2023-06-26T15:18:44;25.10;93.00
59007;DHT22;44792;52.760;6.726;2023-06-26T15:21:09;25.10;93.10
59007;DHT22;44792;52.760;6.726;2023-06-26T15:23:35;25.00;92.70
59007;DHT22;44792;52.760;6.726;2023-06-26T15:26:01;24.60;93.00
59007;DHT22;44792;52.760;6.726;2023-06-26T15:28:27;24.50;93.10
59007;DHT22;44792;52.760;6.726;2023-06-26T15:30:52;24.40;93.20
59007;DHT22;44792;52.760;6.726;2023-06-26T15:33:18;24.60;93.30
59007;DHT22;44792;52.760;6.726;2023-06-26T15:35:44;24.40;93.30
59007;DHT22;44792;52.760;6.726;2023-06-26T15:38:10;24.40;93.50
59007;DHT22;44792;52.760;6.726;2023-06-26T15:40:36;24.40;93.70
59007;DHT22;44792;52.760;6.726;2023-06-26T15:43:02;24.40;93.90